Main page


Airports :

London-Southend, England

London Southend Airport

latitude: 51-34N, longitude: 000-42E, elevation: 15 m

Current weather observation

The report was made 11 minutes ago, at 04:50 UTC
Wind 2 kt from the Northwest
Temperature 9°C
Humidity 81%
Pressure 1020 hPa
Visibility 10 km or more
no clouds below 1500 m and no cumulonimbus

METAR: EGMC 250450Z 31002KT CAVOK 09/06 Q1020

Time: 06:01 (05:01 UTC)


The report was made 3 hours and 9 minutes ago, at 01:52 UTC
Forecast valid from 25 at 03 UTC to 25 at 12 UTC
Wind 5 kt from the North
Visibility 10 km or more
Scattered clouds at a height of 2500 ft
from 25 at 03 UTC to 25 at 10 UTC
Visibility: 8000 m
Probability 30% :
from 25 at 03 UTC to 25 at 09 UTC
Visibility: 3000 m

TAF: EGMC 250152Z 2503/2512 35005KT 9999 SCT025 TEMPO 2503/2510 8000 PROB30 TEMPO 2503/2509 3000 BR

Weather observations and forecasts of more than 4000 airports (METAR and TAF reports).

The available stations are represented by yellow and red dots on the map.

Hover mouse over dot to see the name of the station.

Then click to see weather observations and forecasts.

To change the map : click on the green buttons with a black cross to zoom in, on the green button with a dash to zoom out, or on the green arrows for adjacent maps.